Time;durP1;ratioP1;P1;durP2;ratioP2;P2;SDS_P1;SDS_P2;PMS_P1;PMS_P2;Temp;Humidity;BMP_temperature;BMP_pressure;BME280_temperature;BME280_humidity;BME280_pressure;Samples;Min_cycle;Max_cycle;Signal;HPM_P1;HPM_P2
2022/07/13 00:01:21;;;;;;;6.37;3.93;;;21.80;99.90;;;;;;5046657;28;20532;-81
2022/07/13 00:03:48;;;;;;;6.00;4.40;;;21.80;99.90;;;;;;5065888;28;20471;-80
2022/07/13 00:06:16;;;;;;;4.63;3.33;;;21.80;99.90;;;;;;5075537;28;20530;-80
2022/07/13 00:08:43;;;;;;;5.80;4.13;;;21.80;99.90;;;;;;5059178;28;20836;-80
2022/07/13 00:11:10;;;;;;;5.37;3.50;;;21.80;99.90;;;;;;5068047;28;20451;-79
2022/07/13 00:13:37;;;;;;;4.40;3.47;;;21.80;99.90;;;;;;5059570;28;20451;-80
2022/07/13 00:16:04;;;;;;;5.00;3.50;;;21.80;99.90;;;;;;5075899;28;20649;-80
2022/07/13 00:18:31;;;;;;;4.47;3.40;;;21.80;99.90;;;;;;5068068;28;20534;-80
2022/07/13 00:20:58;;;;;;;5.60;3.77;;;21.80;99.90;;;;;;5055107;28;20452;-82
2022/07/13 00:23:26;;;;;;;5.53;3.30;;;21.80;99.90;;;;;;5067530;28;20482;-80
2022/07/13 00:25:53;;;;;;;5.37;3.90;;;21.80;99.90;;;;;;5056373;28;20539;-81
2022/07/13 00:28:20;;;;;;;5.30;3.90;;;21.80;99.90;;;;;;5054466;28;20448;-82
2022/07/13 00:30:46;;;;;;;5.57;3.87;;;21.80;99.90;;;;;;5054401;28;20539;-81
2022/07/13 00:33:13;;;;;;;6.33;3.70;;;21.80;99.90;;;;;;5055455;28;20936;-80
2022/07/13 00:35:40;;;;;;;4.70;3.37;;;21.80;99.90;;;;;;5055279;28;20535;-82
2022/07/13 00:38:07;;;;;;;3.90;3.60;;;21.80;99.90;;;;;;5055127;28;20466;-81
2022/07/13 00:40:35;;;;;;;5.07;3.67;;;21.80;99.90;;;;;;5055096;28;20454;-80
2022/07/13 00:43:02;;;;;;;4.73;3.43;;;21.80;99.90;;;;;;5072201;28;20478;-80
2022/07/13 00:45:29;;;;;;;6.03;3.57;;;21.80;99.90;;;;;;5074110;28;20489;-81
2022/07/13 00:47:56;;;;;;;5.90;3.40;;;21.80;99.90;;;;;;5073084;28;20533;-83
2022/07/13 00:50:23;;;;;;;5.57;3.87;;;21.80;99.90;;;;;;5054770;28;20451;-82
2022/07/13 00:52:50;;;;;;;3.93;3.50;;;21.80;99.90;;;;;;5054378;28;20547;-80
2022/07/13 00:55:17;;;;;;;5.97;4.03;;;21.70;99.90;;;;;;5038724;28;20484;-79
2022/07/13 00:57:46;;;;;;;8.83;3.67;;;21.70;99.90;;;;;;5054493;28;20534;-80
2022/07/13 01:00:15;;;;;;;7.40;3.70;;;21.60;99.90;;;;;;5054056;28;20452;-80
2022/07/13 01:02:44;;;;;;;5.40;4.20;;;21.50;99.90;;;;;;5034350;28;20543;-80
2022/07/13 01:05:11;;;;;;;5.50;4.17;;;21.40;99.90;;;;;;5068516;28;20474;-80
2022/07/13 01:07:38;;;;;;;4.83;3.70;;;21.30;99.90;;;;;;5073988;28;20534;-80
2022/07/13 01:10:08;;;;;;;5.20;4.23;;;21.30;99.90;;;;;;5056946;28;20523;-79
2022/07/13 01:12:36;;;;;;;7.13;4.57;;;21.10;99.90;;;;;;5061033;28;20498;-79
2022/07/13 01:15:06;;;;;;;6.23;4.50;;;21.10;99.90;;;;;;5071133;28;20450;-79
2022/07/13 01:17:36;;;;;;;5.87;4.90;;;21.10;99.90;;;;;;5073718;28;20479;-80
2022/07/13 01:20:04;;;;;;;5.90;4.30;;;21.00;99.90;;;;;;5055380;28;21229;-80
2022/07/13 01:22:35;;;;;;;5.63;4.67;;;21.00;99.90;;;;;;5061283;28;20486;-79
2022/07/13 01:25:04;;;;;;;6.60;4.60;;;20.90;99.90;;;;;;5071233;28;21014;-80
2022/07/13 01:27:32;;;;;;;7.73;5.40;;;20.90;99.90;;;;;;5053993;28;20564;-82
2022/07/13 01:29:59;;;;;;;9.90;4.67;;;20.90;99.90;;;;;;5053556;28;20979;-79
2022/07/13 01:32:26;;;;;;;6.93;4.40;;;20.80;99.90;;;;;;5054170;28;20476;-81
2022/07/13 01:34:53;;;;;;;6.10;4.30;;;20.80;99.90;;;;;;5053407;28;20535;-81
2022/07/13 01:37:20;;;;;;;7.43;5.10;;;20.80;99.90;;;;;;5053806;28;20455;-81
2022/07/13 01:39:47;;;;;;;7.07;4.90;;;20.80;99.90;;;;;;5052839;28;21023;-79
2022/07/13 01:42:15;;;;;;;6.83;4.33;;;20.70;99.90;;;;;;5056970;28;20852;-81
2022/07/13 01:44:45;;;;;;;5.57;4.90;;;20.70;99.90;;;;;;5072783;28;20483;-81
2022/07/13 01:47:12;;;;;;;5.87;4.50;;;20.70;99.90;;;;;;5073293;28;20455;-81
2022/07/13 01:49:39;;;;;;;5.87;5.13;;;20.70;99.90;;;;;;5065678;28;20482;-80
2022/07/13 01:52:06;;;;;;;9.10;5.07;;;20.70;99.90;;;;;;5073939;28;20546;-80
2022/07/13 01:54:33;;;;;;;6.70;5.20;;;20.60;99.90;;;;;;5064907;28;20487;-79
2022/07/13 01:56:59;;;;;;;5.63;5.10;;;20.60;99.90;;;;;;5053387;28;20475;-80
2022/07/13 01:59:28;;;;;;;6.73;4.70;;;20.60;99.90;;;;;;5053427;28;20978;-80
2022/07/13 02:01:55;;;;;;;7.10;6.13;;;20.60;99.90;;;;;;5053699;28;20472;-81
2022/07/13 02:04:22;;;;;;;7.10;4.63;;;20.60;99.90;;;;;;5052450;28;20998;-79
2022/07/13 02:06:50;;;;;;;6.70;5.43;;;20.60;99.90;;;;;;5060378;28;20522;-82
2022/07/13 02:09:16;;;;;;;5.87;5.13;;;20.60;99.90;;;;;;5062441;28;20452;-81
2022/07/13 02:11:43;;;;;;;4.73;3.93;;;20.60;99.90;;;;;;5070046;28;20542;-80
2022/07/13 02:14:10;;;;;;;6.00;4.37;;;20.60;99.90;;;;;;5066579;28;20535;-82
2022/07/13 02:16:38;;;;;;;6.23;4.73;;;20.60;99.90;;;;;;5044173;28;20841;-80
2022/07/13 02:19:05;;;;;;;4.80;4.30;;;20.60;99.90;;;;;;5053644;28;20486;-82
2022/07/13 02:21:32;;;;;;;7.33;4.53;;;20.60;99.90;;;;;;5065205;28;21287;-82
2022/07/13 02:23:59;;;;;;;5.53;4.50;;;20.60;99.90;;;;;;5064251;28;20447;-81
2022/07/13 02:26:25;;;;;;;5.80;5.20;;;20.60;99.90;;;;;;5074042;28;20562;-82
2022/07/13 02:28:52;;;;;;;5.40;4.50;;;20.60;99.90;;;;;;5066463;28;20447;-82
2022/07/13 02:31:19;;;;;;;7.17;4.50;;;20.70;99.90;;;;;;5053108;28;20487;-80
2022/07/13 02:33:47;;;;;;;5.60;4.40;;;20.60;99.90;;;;;;5052468;28;20470;-81
2022/07/13 02:36:14;;;;;;;5.67;4.10;;;20.70;99.90;;;;;;5090132;23;20601;-83
2022/07/13 02:38:41;;;;;;;4.73;4.23;;;20.70;99.90;;;;;;5077136;28;20986;-83
2022/07/13 02:41:08;;;;;;;6.73;5.17;;;20.70;99.90;;;;;;5081078;28;20545;-85
2022/07/13 02:43:35;;;;;;;6.60;4.23;;;20.60;99.90;;;;;;5080114;28;20470;-83
2022/07/13 02:46:01;;;;;;;4.40;3.63;;;20.70;99.90;;;;;;5081741;28;20486;-84
2022/07/13 02:48:28;;;;;;;5.70;4.23;;;20.60;99.90;;;;;;5080756;28;20463;-83
2022/07/13 02:50:56;;;;;;;4.73;3.80;;;20.70;99.90;;;;;;5081833;28;20523;-84
2022/07/13 02:53:23;;;;;;;5.50;3.93;;;20.70;99.90;;;;;;5093187;28;20485;-83
2022/07/13 02:55:50;;;;;;;5.70;4.57;;;20.70;99.90;;;;;;5101874;28;20490;-83
2022/07/13 02:58:17;;;;;;;8.53;5.00;;;20.70;99.90;;;;;;5082331;28;20479;-84
2022/07/13 03:00:44;;;;;;;4.60;4.10;;;20.70;99.90;;;;;;5078880;28;20447;-83
2022/07/13 03:03:11;;;;;;;4.67;3.93;;;20.60;99.90;;;;;;5081780;28;20447;-83
2022/07/13 03:05:41;;;;;;;4.67;3.80;;;20.60;99.90;;;;;;5085988;28;20502;-83
2022/07/13 03:08:09;;;;;;;7.83;4.83;;;20.60;99.90;;;;;;5084137;28;20475;-84
2022/07/13 03:10:36;;;;;;;4.40;3.93;;;20.60;99.90;;;;;;5079500;28;20531;-83
2022/07/13 03:13:03;;;;;;;5.30;4.80;;;20.60;99.90;;;;;;5079295;28;20450;-84
2022/07/13 03:15:30;;;;;;;5.13;4.27;;;20.60;99.90;;;;;;5079771;28;20530;-83
2022/07/13 03:17:56;;;;;;;5.10;4.20;;;20.70;99.90;;;;;;5080386;28;20546;-83
2022/07/13 03:20:23;;;;;;;4.20;3.80;;;20.60;99.90;;;;;;5084867;28;20438;-83
2022/07/13 03:22:56;;;;;;;5.53;4.73;;;20.60;99.90;;;;;;5100012;28;20438;-83
2022/07/13 03:25:24;;;;;;;6.10;4.57;;;20.60;99.90;;;;;;5084758;28;20482;-83
2022/07/13 03:27:51;;;;;;;5.77;4.20;;;20.70;99.90;;;;;;5100968;28;20450;-84
2022/07/13 03:30:18;;;;;;;5.37;4.00;;;20.70;99.90;;;;;;5083031;28;20907;-83
2022/07/13 03:32:44;;;;;;;6.93;4.80;;;20.70;99.90;;;;;;5081138;28;20458;-82
2022/07/13 03:35:11;;;;;;;5.23;4.13;;;20.60;99.90;;;;;;5088047;28;20485;-83
2022/07/13 03:37:38;;;;;;;5.80;3.73;;;20.60;99.90;;;;;;5088263;28;20533;-83
2022/07/13 03:40:06;;;;;;;5.70;4.73;;;20.60;99.90;;;;;;5094596;28;20446;-85
2022/07/13 03:42:34;;;;;;;3.90;3.30;;;20.60;99.90;;;;;;5086896;28;20471;-85
2022/07/13 03:45:01;;;;;;;5.63;3.70;;;20.60;99.90;;;;;;5082504;28;20486;-85
2022/07/13 03:47:28;;;;;;;4.43;3.60;;;20.60;99.90;;;;;;5083268;28;20475;-84
2022/07/13 03:49:56;;;;;;;4.80;4.03;;;20.60;99.90;;;;;;5084338;28;20471;-85
2022/07/13 03:52:23;;;;;;;3.70;3.30;;;20.60;99.90;;;;;;5073271;28;20458;-84
2022/07/13 03:54:49;;;;;;;4.17;3.77;;;20.60;99.90;;;;;;5095574;28;20443;-86
2022/07/13 03:57:16;;;;;;;5.60;4.33;;;20.60;99.90;;;;;;5089791;28;20500;-85
2022/07/13 03:59:45;;;;;;;3.73;3.33;;;20.60;99.90;;;;;;5082492;28;20463;-85
2022/07/13 04:02:11;;;;;;;4.90;4.40;;;20.60;99.90;;;;;;5082944;28;20447;-86
2022/07/13 04:04:38;;;;;;;5.33;4.33;;;20.60;99.90;;;;;;5084801;28;20522;-84
2022/07/13 04:07:05;;;;;;;5.93;4.00;;;20.60;99.90;;;;;;5090220;28;21002;-84
2022/07/13 04:09:32;;;;;;;4.40;3.17;;;20.60;99.90;;;;;;5078722;28;20491;-81
2022/07/13 04:12:08;;;;;;;5.03;3.20;;;20.60;99.90;;;;;;5076496;28;20459;-82
2022/07/13 04:14:35;;;;;;;4.70;3.97;;;20.70;99.90;;;;;;5079434;28;20466;-83
2022/07/13 04:17:03;;;;;;;4.50;3.70;;;20.70;99.90;;;;;;5078769;28;21029;-84
2022/07/13 04:19:30;;;;;;;6.30;3.83;;;20.70;99.90;;;;;;5078811;28;20487;-85
2022/07/13 04:21:57;;;;;;;6.97;3.73;;;20.70;99.90;;;;;;5079696;28;21023;-83
2022/07/13 04:24:24;;;;;;;6.40;3.47;;;20.70;99.90;;;;;;5079132;28;20797;-83
2022/07/13 04:26:51;;;;;;;4.53;3.40;;;20.70;99.90;;;;;;5080129;28;20548;-84
2022/07/13 04:29:18;;;;;;;4.03;3.33;;;20.70;99.90;;;;;;5079561;28;20518;-83
2022/07/13 04:31:47;;;;;;;4.93;3.97;;;20.70;99.90;;;;;;5078319;28;20522;-82
2022/07/13 04:34:15;;;;;;;5.20;3.70;;;20.80;99.90;;;;;;5074935;28;20458;-82
2022/07/13 04:36:45;;;;;;;4.13;3.50;;;20.80;99.90;;;;;;5073187;28;20540;-81
2022/07/13 04:39:13;;;;;;;3.77;3.30;;;20.80;99.90;;;;;;5077096;28;21014;-82
2022/07/13 04:41:40;;;;;;;4.37;3.70;;;20.90;99.90;;;;;;5078689;28;20515;-83
2022/07/13 04:44:07;;;;;;;4.50;3.37;;;20.90;99.90;;;;;;5077594;28;20511;-84
2022/07/13 04:46:34;;;;;;;3.70;2.90;;;21.00;99.90;;;;;;5079521;28;20507;-83
2022/07/13 04:49:01;;;;;;;4.97;3.37;;;21.10;99.90;;;;;;5079532;28;20462;-83
2022/07/13 04:51:29;;;;;;;4.13;3.20;;;21.10;99.90;;;;;;5078755;28;20447;-84
2022/07/13 04:53:57;;;;;;;5.63;4.03;;;21.20;99.90;;;;;;5079603;28;20503;-83
2022/07/13 04:56:24;;;;;;;4.90;3.57;;;21.20;99.90;;;;;;5078543;28;20467;-84
2022/07/13 04:58:51;;;;;;;5.77;4.17;;;21.30;99.90;;;;;;5078289;28;20563;-83
2022/07/13 05:01:17;;;;;;;5.77;3.83;;;21.40;99.90;;;;;;5082586;28;20459;-83
2022/07/13 05:03:44;;;;;;;6.17;3.60;;;21.40;99.90;;;;;;5078115;28;20477;-83
2022/07/13 05:06:14;;;;;;;4.70;3.67;;;21.50;99.90;;;;;;5077603;28;20994;-85
2022/07/13 05:08:42;;;;;;;5.20;3.37;;;21.60;99.90;;;;;;5076239;28;20451;-83
2022/07/13 05:11:10;;;;;;;5.67;3.50;;;21.70;99.90;;;;;;5077015;28;20479;-83
2022/07/13 05:13:37;;;;;;;3.97;3.57;;;21.70;99.90;;;;;;5076063;28;20458;-83
2022/07/13 05:16:04;;;;;;;6.73;3.63;;;21.80;99.90;;;;;;5074149;28;20549;-84
2022/07/13 05:18:32;;;;;;;3.67;3.00;;;21.80;99.90;;;;;;5078057;28;20463;-84
2022/07/13 05:20:59;;;;;;;3.87;3.00;;;21.80;99.90;;;;;;5078627;28;20830;-83
2022/07/13 05:23:26;;;;;;;4.50;3.33;;;21.80;99.90;;;;;;5077354;28;20457;-83
2022/07/13 05:25:54;;;;;;;6.60;3.27;;;21.80;99.90;;;;;;5077985;28;20578;-84
2022/07/13 05:28:21;;;;;;;4.80;3.53;;;21.90;99.90;;;;;;5077811;28;20447;-84
2022/07/13 05:30:48;;;;;;;4.83;2.97;;;21.90;99.90;;;;;;5077679;28;20443;-84
2022/07/13 05:33:16;;;;;;;3.80;3.10;;;22.00;99.90;;;;;;5077892;28;20470;-84
2022/07/13 05:35:43;;;;;;;5.70;3.73;;;22.00;99.90;;;;;;5076589;28;20463;-84
2022/07/13 05:38:10;;;;;;;5.97;3.20;;;22.10;99.90;;;;;;5081754;28;20493;-84
2022/07/13 05:40:37;;;;;;;3.43;2.77;;;22.10;99.90;;;;;;5080785;28;20541;-83
2022/07/13 05:43:06;;;;;;;4.70;3.07;;;22.20;99.90;;;;;;5080741;28;20491;-84
2022/07/13 05:45:32;;;;;;;3.80;3.10;;;22.30;99.90;;;;;;5080858;28;20494;-84
2022/07/13 05:48:00;;;;;;;4.40;3.40;;;22.40;99.90;;;;;;5081023;28;20494;-83
2022/07/13 05:50:27;;;;;;;3.50;2.63;;;22.40;99.90;;;;;;5078266;28;20490;-85
2022/07/13 05:52:54;;;;;;;4.57;2.60;;;22.50;99.90;;;;;;5076567;28;20478;-86
2022/07/13 05:55:21;;;;;;;6.07;2.97;;;22.50;99.90;;;;;;5076962;28;20455;-85
2022/07/13 05:57:47;;;;;;;5.00;2.63;;;22.60;99.90;;;;;;5081449;28;20455;-87
2022/07/13 06:00:16;;;;;;;3.90;2.40;;;22.60;99.90;;;;;;5095379;28;20439;-85
2022/07/13 06:02:43;;;;;;;4.57;2.20;;;22.60;99.90;;;;;;5078009;28;20475;-83
2022/07/13 06:05:11;;;;;;;5.30;2.20;;;22.60;99.90;;;;;;5077466;28;20455;-84
2022/07/13 06:07:38;;;;;;;4.67;2.20;;;22.70;99.90;;;;;;5078730;28;20900;-84
2022/07/13 06:10:06;;;;;;;4.97;1.67;;;22.70;99.90;;;;;;5077779;28;20524;-84
2022/07/13 06:12:33;;;;;;;5.13;1.80;;;22.70;99.90;;;;;;5059128;28;20472;-84
2022/07/13 06:15:00;;;;;;;4.40;1.90;;;22.80;99.90;;;;;;5059190;28;20459;-84
2022/07/13 06:17:28;;;;;;;4.93;2.83;;;22.90;99.90;;;;;;5059992;28;20517;-84
2022/07/13 06:19:55;;;;;;;3.80;1.97;;;23.10;99.90;;;;;;5069883;28;20519;-85
2022/07/13 06:22:22;;;;;;;5.00;2.07;;;23.20;99.90;;;;;;5079665;28;20947;-84
2022/07/13 06:24:49;;;;;;;4.47;2.07;;;23.30;99.90;;;;;;5077695;28;20482;-83
2022/07/13 06:27:16;;;;;;;3.40;1.90;;;23.30;99.90;;;;;;5077727;28;20581;-83
2022/07/13 06:29:43;;;;;;;3.67;1.60;;;23.40;99.90;;;;;;5076929;28;20530;-84
2022/07/13 06:32:10;;;;;;;4.10;1.93;;;23.40;99.90;;;;;;5076819;28;20595;-83
2022/07/13 06:34:38;;;;;;;2.50;1.50;;;23.60;99.90;;;;;;5077311;28;20457;-83
2022/07/13 06:37:06;;;;;;;4.20;2.00;;;23.80;99.90;;;;;;5077556;28;20479;-84
2022/07/13 06:39:33;;;;;;;3.03;1.63;;;24.00;99.90;;;;;;5076750;28;20610;-83
2022/07/13 06:42:00;;;;;;;3.70;2.07;;;24.30;99.90;;;;;;5077604;28;20455;-84
2022/07/13 06:44:27;;;;;;;7.70;1.80;;;24.50;99.90;;;;;;5076880;28;20558;-84
2022/07/13 06:46:54;;;;;;;4.57;1.97;;;24.60;99.90;;;;;;5076847;28;20840;-83
2022/07/13 06:49:21;;;;;;;6.87;2.00;;;24.60;99.90;;;;;;5077494;28;20978;-83
2022/07/13 06:51:49;;;;;;;3.77;2.13;;;24.70;99.90;;;;;;5075859;28;20530;-83
2022/07/13 06:54:16;;;;;;;5.07;1.70;;;24.80;99.90;;;;;;5071423;28;20480;-84
2022/07/13 06:56:43;;;;;;;2.80;1.60;;;24.90;99.90;;;;;;5059960;28;20547;-83
2022/07/13 06:59:11;;;;;;;2.40;1.50;;;25.00;99.90;;;;;;5078396;28;20522;-82
2022/07/13 07:01:37;;;;;;;2.40;1.50;;;25.00;99.90;;;;;;5078064;28;20512;-84
2022/07/13 07:04:04;;;;;;;3.43;1.47;;;25.00;99.90;;;;;;5076833;28;20855;-83
2022/07/13 07:06:31;;;;;;;2.73;1.60;;;25.10;99.90;;;;;;5078530;28;20566;-84
2022/07/13 07:09:00;;;;;;;3.30;1.63;;;25.10;99.90;;;;;;5078931;28;20479;-85
2022/07/13 07:11:26;;;;;;;3.87;2.00;;;25.00;99.90;;;;;;5075133;28;20459;-83
2022/07/13 07:13:53;;;;;;;2.80;1.73;;;25.10;99.90;;;;;;5076626;28;20939;-84
2022/07/13 07:16:20;;;;;;;2.90;1.73;;;25.10;99.90;;;;;;5077988;28;21001;-82
2022/07/13 07:18:47;;;;;;;3.80;1.93;;;25.10;99.90;;;;;;5078124;28;20535;-84
2022/07/13 07:21:14;;;;;;;3.97;1.90;;;25.20;99.90;;;;;;5080425;28;20446;-84
2022/07/13 07:23:40;;;;;;;4.47;2.03;;;25.20;99.90;;;;;;5080902;28;20519;-83
2022/07/13 07:26:09;;;;;;;3.37;1.60;;;25.40;99.90;;;;;;5081687;28;20598;-83
2022/07/13 07:28:36;;;;;;;5.83;1.63;;;25.50;99.90;;;;;;5081222;28;20569;-85
2022/07/13 07:31:03;;;;;;;3.10;1.90;;;25.60;99.90;;;;;;5081221;28;20546;-83
2022/07/13 07:33:31;;;;;;;2.93;1.60;;;25.60;99.90;;;;;;5080320;28;20527;-85
2022/07/13 07:35:58;;;;;;;2.80;1.77;;;25.70;99.90;;;;;;5079943;28;20482;-84
2022/07/13 07:38:24;;;;;;;3.60;1.77;;;25.70;99.90;;;;;;5081130;28;20518;-84
2022/07/13 07:40:51;;;;;;;3.33;1.70;;;25.60;99.90;;;;;;5080341;28;20451;-84
2022/07/13 07:43:19;;;;;;;3.20;1.83;;;25.70;99.90;;;;;;5081255;28;20506;-85
2022/07/13 07:45:46;;;;;;;3.77;1.87;;;25.70;99.90;;;;;;5080903;28;20510;-84
2022/07/13 07:48:13;;;;;;;4.07;1.70;;;25.80;99.90;;;;;;5082767;28;20481;-83
2022/07/13 07:50:40;;;;;;;5.80;1.60;;;25.80;99.90;;;;;;5083289;28;20504;-84
2022/07/13 07:53:07;;;;;;;3.40;1.73;;;26.00;99.90;;;;;;5081488;28;20447;-85
2022/07/13 07:55:34;;;;;;;3.10;1.83;;;26.20;99.90;;;;;;5083167;28;20471;-84
2022/07/13 07:58:01;;;;;;;3.90;1.73;;;26.30;99.90;;;;;;5075195;28;21247;-84
2022/07/13 08:00:30;;;;;;;3.33;1.70;;;26.40;99.90;;;;;;5078719;28;21042;-85
2022/07/13 08:03:02;;;;;;;3.23;1.93;;;26.50;99.90;;;;;;5088173;28;20481;-85
2022/07/13 08:05:29;;;;;;;3.40;2.00;;;26.60;99.90;;;;;;5087204;28;20447;-84
2022/07/13 08:07:57;;;;;;;3.43;1.70;;;26.50;99.90;;;;;;5081085;28;20564;-84
2022/07/13 08:10:24;;;;;;;3.03;1.60;;;26.60;99.90;;;;;;5080590;28;20455;-86
2022/07/13 08:12:51;;;;;;;4.20;1.70;;;26.60;99.90;;;;;;5072782;28;20447;-84
2022/07/13 08:15:18;;;;;;;4.20;1.90;;;26.70;99.90;;;;;;5080045;28;20447;-84
2022/07/13 08:17:46;;;;;;;4.20;2.17;;;26.70;99.90;;;;;;5079833;28;21029;-83
2022/07/13 08:20:13;;;;;;;2.80;2.03;;;26.80;99.90;;;;;;5080568;28;20498;-85
2022/07/13 08:22:40;;;;;;;4.10;1.77;;;26.90;99.90;;;;;;5080411;28;20483;-84
2022/07/13 08:25:07;;;;;;;3.70;1.77;;;27.00;99.90;;;;;;5080053;28;20483;-84
2022/07/13 08:27:34;;;;;;;3.53;1.70;;;27.00;99.90;;;;;;5079455;28;20550;-84
2022/07/13 08:30:01;;;;;;;3.80;1.90;;;27.00;99.90;;;;;;5079947;28;20474;-84
2022/07/13 08:32:28;;;;;;;4.50;2.20;;;27.00;99.90;;;;;;5080346;28;20982;-85
2022/07/13 08:40:25;;;;;;;5.50;2.03;;;26.90;99.90;;;;;;5080071;28;20431;-84
2022/07/13 08:42:52;;;;;;;4.20;2.47;;;26.90;99.90;;;;;;5079308;28;20543;-83
2022/07/13 08:45:18;;;;;;;3.30;1.73;;;27.00;99.90;;;;;;5080152;28;20463;-85
2022/07/13 08:47:47;;;;;;;3.53;2.43;;;27.10;99.90;;;;;;5080425;28;20517;-86
2022/07/13 08:50:17;;;;;;;4.40;2.10;;;27.20;99.90;;;;;;5078659;28;20493;-83
2022/07/13 08:52:44;;;;;;;5.20;2.00;;;27.10;99.90;;;;;;5080317;28;20478;-87
2022/07/13 08:55:11;;;;;;;6.10;2.00;;;27.10;99.90;;;;;;5079388;28;20467;-85
2022/07/13 08:57:39;;;;;;;5.13;2.03;;;27.10;99.90;;;;;;5079870;28;20493;-82
2022/07/13 09:00:09;;;;;;;6.00;2.20;;;27.10;99.90;;;;;;5079656;28;20451;-84
2022/07/13 09:06:51;;;;;;;6.10;2.60;;;27.80;99.90;;;;;;5078994;28;20860;-84
2022/07/13 09:09:28;;;;;;;4.57;2.03;;;27.90;99.90;;;;;;5068300;28;20486;-85
2022/07/13 09:12:15;;;;;;;3.87;2.03;;;27.80;99.90;;;;;;5079855;28;20457;-84
2022/07/13 09:14:42;;;;;;;5.50;2.50;;;27.90;99.90;;;;;;5080705;28;20441;-84
2022/07/13 09:17:19;;;;;;;5.53;2.20;;;27.70;99.90;;;;;;5076129;28;20551;-84
2022/07/13 09:19:46;;;;;;;4.27;1.77;;;27.70;99.90;;;;;;5073607;28;20491;-84
2022/07/13 09:22:14;;;;;;;3.83;2.00;;;27.80;99.90;;;;;;5081156;28;20482;-84
2022/07/13 09:24:47;;;;;;;3.23;1.90;;;27.90;99.90;;;;;;5080614;28;20463;-84
2022/07/13 09:27:15;;;;;;;3.10;1.97;;;27.90;99.90;;;;;;5077431;28;21075;-85
2022/07/13 09:29:43;;;;;;;5.90;2.07;;;28.10;99.90;;;;;;5080634;28;20462;-86
2022/07/13 09:32:12;;;;;;;5.07;2.77;;;28.10;99.90;;;;;;5075658;28;20451;-85
2022/07/13 09:34:53;;;;;;;3.97;2.23;;;28.10;99.90;;;;;;5079221;28;20546;-86
2022/07/13 09:37:22;;;;;;;4.93;3.10;;;28.20;99.90;;;;;;5077749;28;20493;-84
2022/07/13 09:40:08;;;;;;;4.83;2.30;;;28.50;99.90;;;;;;5082148;28;20439;-84
2022/07/13 09:42:36;;;;;;;4.63;1.77;;;29.00;99.90;;;;;;5079277;28;20475;-84
2022/07/13 09:47:52;;;;;;;4.97;1.87;;;29.20;99.90;;;;;;5078196;28;20570;-84
2022/07/13 09:50:20;;;;;;;3.80;2.40;;;29.20;99.90;;;;;;5078079;28;20526;-85
2022/07/13 09:52:47;;;;;;;4.43;1.67;;;29.30;99.90;;;;;;5078888;28;21022;-84
2022/07/13 09:55:20;;;;;;;3.00;1.83;;;29.70;99.90;;;;;;5081262;28;20500;-84
2022/07/13 09:57:49;;;;;;;4.53;1.80;;;29.70;99.90;;;;;;5081540;28;20534;-83
2022/07/13 10:00:18;;;;;;;3.87;1.83;;;29.80;99.90;;;;;;5083190;28;20511;-85
2022/07/13 10:02:47;;;;;;;6.83;2.60;;;29.80;99.90;;;;;;5084891;28;20435;-83
2022/07/13 10:05:15;;;;;;;8.13;2.43;;;29.60;99.90;;;;;;5095798;28;20431;-85
2022/07/13 10:07:43;;;;;;;4.40;1.47;;;29.50;99.90;;;;;;5096550;28;20475;-84
2022/07/13 10:10:11;;;;;;;7.73;2.00;;;29.60;99.90;;;;;;5096498;28;20447;-84
2022/07/13 10:12:40;;;;;;;4.37;1.80;;;29.30;99.90;;;;;;5095358;28;20473;-83
2022/07/13 10:15:09;;;;;;;3.73;1.90;;;29.40;99.90;;;;;;5084517;28;20458;-83
2022/07/13 10:17:37;;;;;;;8.30;1.87;;;29.40;99.90;;;;;;5080253;28;20503;-86
2022/07/13 10:20:09;;;;;;;3.40;1.83;;;29.70;99.90;;;;;;5080649;28;20451;-85
2022/07/13 10:22:40;;;;;;;4.70;1.73;;;30.20;99.90;;;;;;5079213;28;20440;-85
2022/07/13 10:25:08;;;;;;;2.93;1.33;;;30.30;99.90;;;;;;5079627;28;20483;-84
2022/07/13 10:27:36;;;;;;;3.60;2.00;;;30.40;99.90;;;;;;5081382;28;20481;-83
2022/07/13 10:30:07;;;;;;;4.80;1.70;;;30.30;99.90;;;;;;5081214;28;20453;-85
2022/07/13 10:32:35;;;;;;;6.23;2.33;;;30.20;99.90;;;;;;5105280;23;20503;-81
2022/07/13 10:35:04;;;;;;;4.90;1.63;;;29.90;99.90;;;;;;5063760;28;20504;-81
2022/07/13 10:38:09;;;;;;;4.03;2.00;;;29.70;99.90;;;;;;5064287;28;20431;-82
2022/07/13 10:40:37;;;;;;;8.67;1.90;;;29.70;99.90;;;;;;5064918;28;20451;-81
2022/07/13 10:43:11;;;;;;;4.70;2.10;;;30.10;99.90;;;;;;5064905;28;20914;-83
2022/07/13 10:45:41;;;;;;;3.70;1.90;;;30.40;99.90;;;;;;5065457;28;20442;-82
2022/07/13 10:48:10;;;;;;;4.50;1.70;;;30.50;99.90;;;;;;5063323;28;20551;-81
2022/07/13 10:50:45;;;;;;;3.43;2.30;;;30.60;99.90;;;;;;5064675;28;20459;-82
2022/07/13 10:53:13;;;;;;;4.50;1.90;;;30.70;99.90;;;;;;5063849;28;20571;-81
2022/07/13 10:55:47;;;;;;;3.60;2.00;;;30.90;99.90;;;;;;5064317;28;20447;-82
2022/07/13 10:58:45;;;;;;;3.53;1.90;;;31.00;99.90;;;;;;5068012;28;20458;-82
2022/07/13 11:01:50;;;;;;;4.60;2.03;;;31.10;99.90;;;;;;5054953;28;20447;-81
2022/07/13 11:04:20;;;;;;;5.83;2.43;;;30.90;99.90;;;;;;5064579;28;20466;-81
2022/07/13 11:07:10;;;;;;;3.10;1.77;;;30.90;99.90;;;;;;5063742;28;20454;-80
2022/07/13 11:09:39;;;;;;;8.80;1.87;;;30.90;99.90;;;;;;5040207;28;20526;-81
2022/07/13 11:12:21;;;;;;;4.97;1.97;;;30.80;99.90;;;;;;5064555;28;20501;-82
2022/07/13 11:14:49;;;;;;;2.80;1.50;;;30.80;99.90;;;;;;5061388;28;20963;-81
2022/07/13 11:17:19;;;;;;;5.67;1.70;;;30.80;99.90;;;;;;5062596;28;20436;-81
2022/07/13 11:20:09;;;;;;;5.57;2.03;;;30.80;99.90;;;;;;5063355;28;20436;-82
2022/07/13 11:25:38;;;;;;;3.10;1.90;;;30.70;99.90;;;;;;5062102;28;20427;-83
2022/07/13 11:28:21;;;;;;;7.80;2.00;;;30.30;99.90;;;;;;5060585;28;20574;-81
2022/07/13 11:30:53;;;;;;;5.73;1.67;;;30.00;99.90;;;;;;5060852;28;20471;-80
2022/07/13 11:33:21;;;;;;;3.90;1.73;;;29.60;99.90;;;;;;5059428;28;20487;-81
2022/07/13 11:35:50;;;;;;;4.37;1.73;;;29.40;99.90;;;;;;5061385;28;20544;-82
2022/07/13 11:38:19;;;;;;;3.57;2.37;;;29.00;99.90;;;;;;5061322;28;20448;-82
2022/07/13 11:40:47;;;;;;;4.50;2.67;;;29.00;99.90;;;;;;5059000;28;20444;-80
2022/07/13 11:43:14;;;;;;;5.93;1.70;;;28.80;99.90;;;;;;5059240;28;20478;-81
2022/07/13 11:45:42;;;;;;;4.10;1.80;;;28.80;99.90;;;;;;5064155;28;20892;-82
2022/07/13 11:48:13;;;;;;;2.87;1.70;;;28.90;99.90;;;;;;5061204;28;20563;-81
2022/07/13 11:50:52;;;;;;;3.53;1.93;;;28.90;99.90;;;;;;5060128;28;20455;-81
2022/07/13 11:53:23;;;;;;;4.53;1.50;;;29.40;99.90;;;;;;5060777;28;20479;-82
2022/07/13 11:55:50;;;;;;;4.43;1.60;;;29.90;99.90;;;;;;5061994;28;20452;-81
2022/07/13 11:58:25;;;;;;;4.47;2.10;;;30.50;99.90;;;;;;5061227;28;20499;-82
2022/07/13 12:00:52;;;;;;;17.37;2.30;;;31.10;99.90;;;;;;5063086;28;20477;-81
2022/07/13 12:03:29;;;;;;;5.90;1.83;;;31.80;99.90;;;;;;5061953;28;20583;-82
2022/07/13 12:06:05;;;;;;;3.17;2.00;;;32.40;99.90;;;;;;5061781;28;20486;-81
2022/07/13 12:08:34;;;;;;;4.13;2.17;;;32.60;99.90;;;;;;5062794;28;20634;-81
2022/07/13 12:11:03;;;;;;;3.03;1.77;;;32.40;99.90;;;;;;5060529;28;20444;-82
2022/07/13 12:13:32;;;;;;;3.30;2.10;;;32.40;99.90;;;;;;5061080;28;20462;-82
2022/07/13 12:15:59;;;;;;;3.43;2.00;;;32.40;99.90;;;;;;5061992;28;20456;-81
2022/07/13 12:18:26;;;;;;;7.10;2.23;;;32.50;99.90;;;;;;5060982;28;20539;-82
2022/07/13 12:20:53;;;;;;;5.17;2.20;;;32.50;99.90;;;;;;5060939;28;20484;-82
2022/07/13 12:23:22;;;;;;;4.00;2.00;;;32.70;99.90;;;;;;5058945;28;20540;-82
2022/07/13 12:26:05;;;;;;;4.33;1.80;;;33.00;99.60;;;;;;5059496;28;20455;-80
2022/07/13 12:28:32;;;;;;;4.40;1.87;;;33.30;99.90;;;;;;5059171;28;20490;-81
2022/07/13 12:31:01;;;;;;;5.07;1.70;;;33.50;99.90;;;;;;5060779;28;20482;-82
2022/07/13 12:33:44;;;;;;;3.50;1.73;;;33.00;96.60;;;;;;5059163;28;20435;-80
2022/07/13 12:36:12;;;;;;;4.63;2.87;;;32.60;99.00;;;;;;5059502;28;20471;-81
2022/07/13 12:39:01;;;;;;;3.67;2.00;;;32.00;97.50;;;;;;5057976;28;20468;-81
2022/07/13 12:41:34;;;;;;;6.20;2.37;;;31.80;98.60;;;;;;5058172;28;20464;-82
2022/07/13 12:44:02;;;;;;;4.03;1.93;;;31.70;99.90;;;;;;5057762;28;20452;-81
2022/07/13 12:46:50;;;;;;;3.70;2.23;;;31.40;99.90;;;;;;5059164;28;20494;-81
2022/07/13 12:49:17;;;;;;;5.53;2.00;;;31.50;99.90;;;;;;5057678;28;20483;-80
2022/07/13 12:51:51;;;;;;;3.70;2.43;;;31.60;99.50;;;;;;5059280;28;20504;-82
2022/07/13 12:54:40;;;;;;;6.80;2.07;;;31.70;99.90;;;;;;5060269;28;20940;-81
2022/07/13 12:57:10;;;;;;;3.83;2.13;;;31.50;99.90;;;;;;5058912;28;20547;-81
2022/07/13 12:59:37;;;;;;;3.20;2.03;;;31.70;99.90;;;;;;5058521;28;20473;-79
2022/07/13 13:02:05;;;;;;;4.33;2.10;;;32.00;99.90;;;;;;5059567;28;20515;-82
2022/07/13 13:04:32;;;;;;;3.80;2.60;;;32.10;99.90;;;;;;5057762;28;20452;-80
2022/07/13 13:06:59;;;;;;;5.10;2.40;;;32.20;99.90;;;;;;5058403;28;20487;-80
2022/07/13 13:09:27;;;;;;;3.87;2.13;;;32.30;99.90;;;;;;5058993;28;21046;-81
2022/07/13 13:11:54;;;;;;;3.50;2.30;;;32.30;99.90;;;;;;5059922;28;20555;-82